sensor_id;sensor_type;location;lat;lon;timestamp;pressure;altitude;pressure_sealevel;temperature;humidity
80624;BME280;69981;44.768;9.600;2023-05-07T00:00:23;97409.84;;;13.71;69.81
80624;BME280;69981;44.768;9.600;2023-05-07T00:02:48;97407.50;;;13.74;69.93
80624;BME280;69981;44.768;9.600;2023-05-07T00:05:14;97398.63;;;13.67;70.03
80624;BME280;69981;44.768;9.600;2023-05-07T00:07:40;97402.88;;;13.63;70.71
80624;BME280;69981;44.768;9.600;2023-05-07T00:10:06;97398.75;;;13.61;70.13
80624;BME280;69981;44.768;9.600;2023-05-07T00:12:32;97407.50;;;13.63;69.86
80624;BME280;69981;44.768;9.600;2023-05-07T00:15:04;97409.50;;;13.67;69.47
80624;BME280;69981;44.768;9.600;2023-05-07T00:17:31;97403.56;;;13.59;70.12
80624;BME280;69981;44.768;9.600;2023-05-07T00:19:56;97413.38;;;13.60;70.08
80624;BME280;69981;44.768;9.600;2023-05-07T00:22:22;97411.59;;;13.54;70.08
80624;BME280;69981;44.768;9.600;2023-05-07T00:24:47;97408.88;;;13.54;70.27
80624;BME280;69981;44.768;9.600;2023-05-07T00:27:13;97409.47;;;13.56;70.11
80624;BME280;69981;44.768;9.600;2023-05-07T00:29:39;97409.69;;;13.54;70.06
80624;BME280;69981;44.768;9.600;2023-05-07T00:32:04;97411.22;;;13.50;70.31
80624;BME280;69981;44.768;9.600;2023-05-07T00:34:30;97406.25;;;13.47;70.13
80624;BME280;69981;44.768;9.600;2023-05-07T00:36:56;97404.97;;;13.50;69.95
80624;BME280;69981;44.768;9.600;2023-05-07T00:39:21;97407.69;;;13.50;70.15
80624;BME280;69981;44.768;9.600;2023-05-07T00:41:47;97406.88;;;13.49;70.24
80624;BME280;69981;44.768;9.600;2023-05-07T00:44:13;97414.78;;;13.51;69.59
80624;BME280;69981;44.768;9.600;2023-05-07T00:46:40;97415.31;;;13.41;70.12
80624;BME280;69981;44.768;9.600;2023-05-07T00:49:06;97418.88;;;13.42;70.18
80624;BME280;69981;44.768;9.600;2023-05-07T00:51:32;97422.41;;;13.42;69.87
80624;BME280;69981;44.768;9.600;2023-05-07T00:54:00;97419.69;;;13.42;69.90
80624;BME280;69981;44.768;9.600;2023-05-07T00:56:27;97417.47;;;13.39;70.17
80624;BME280;69981;44.768;9.600;2023-05-07T00:58:53;97416.63;;;13.39;70.26
80624;BME280;69981;44.768;9.600;2023-05-07T01:01:18;97419.09;;;13.40;69.67
80624;BME280;69981;44.768;9.600;2023-05-07T01:03:44;97419.94;;;13.41;69.97
80624;BME280;69981;44.768;9.600;2023-05-07T01:06:10;97418.66;;;13.43;69.91
80624;BME280;69981;44.768;9.600;2023-05-07T01:08:39;97422.88;;;13.39;69.76
80624;BME280;69981;44.768;9.600;2023-05-07T01:11:06;97427.84;;;13.42;69.80
80624;BME280;69981;44.768;9.600;2023-05-07T01:13:34;97425.00;;;13.37;70.00
80624;BME280;69981;44.768;9.600;2023-05-07T01:16:00;97430.44;;;13.37;70.22
80624;BME280;69981;44.768;9.600;2023-05-07T01:18:26;97426.28;;;13.34;70.10
80624;BME280;69981;44.768;9.600;2023-05-07T01:20:52;97430.63;;;13.24;70.98
80624;BME280;69981;44.768;9.600;2023-05-07T01:23:18;97431.06;;;13.21;71.05
80624;BME280;69981;44.768;9.600;2023-05-07T01:25:51;97430.00;;;13.22;71.03
80624;BME280;69981;44.768;9.600;2023-05-07T01:28:18;97453.00;;;13.19;70.95
80624;BME280;69981;44.768;9.600;2023-05-07T01:30:47;97442.44;;;13.11;71.43
80624;BME280;69981;44.768;9.600;2023-05-07T01:33:15;97441.91;;;13.03;71.73
80624;BME280;69981;44.768;9.600;2023-05-07T01:35:45;97448.94;;;12.92;71.71
80624;BME280;69981;44.768;9.600;2023-05-07T01:38:13;97452.47;;;12.92;71.98
80624;BME280;69981;44.768;9.600;2023-05-07T01:40:38;97441.28;;;12.89;72.13
80624;BME280;69981;44.768;9.600;2023-05-07T01:43:05;97450.06;;;12.84;72.03
80624;BME280;69981;44.768;9.600;2023-05-07T01:45:33;97456.25;;;12.73;73.55
80624;BME280;69981;44.768;9.600;2023-05-07T01:47:59;97447.56;;;12.71;73.55
80624;BME280;69981;44.768;9.600;2023-05-07T01:50:25;97448.00;;;12.68;73.94
80624;BME280;69981;44.768;9.600;2023-05-07T01:52:51;97451.16;;;12.65;73.97
80624;BME280;69981;44.768;9.600;2023-05-07T01:55:17;97448.69;;;12.64;73.15
80624;BME280;69981;44.768;9.600;2023-05-07T01:57:42;97454.94;;;12.64;72.83
80624;BME280;69981;44.768;9.600;2023-05-07T02:00:09;97461.19;;;12.65;73.22
80624;BME280;69981;44.768;9.600;2023-05-07T02:02:43;97460.50;;;12.51;73.50
80624;BME280;69981;44.768;9.600;2023-05-07T02:05:22;97475.22;;;12.55;73.60
80624;BME280;69981;44.768;9.600;2023-05-07T02:07:55;97473.88;;;12.46;74.02
80624;BME280;69981;44.768;9.600;2023-05-07T02:10:21;97483.06;;;12.45;73.37
80624;BME280;69981;44.768;9.600;2023-05-07T02:12:46;97472.78;;;12.29;74.69
80624;BME280;69981;44.768;9.600;2023-05-07T02:15:12;97471.22;;;12.21;74.91
80624;BME280;69981;44.768;9.600;2023-05-07T02:18:00;97477.72;;;12.13;75.56
80624;BME280;69981;44.768;9.600;2023-05-07T02:20:26;97463.22;;;12.08;75.30
80624;BME280;69981;44.768;9.600;2023-05-07T02:22:52;97471.91;;;12.10;75.12
80624;BME280;69981;44.768;9.600;2023-05-07T02:25:18;97479.06;;;12.04;75.46
80624;BME280;69981;44.768;9.600;2023-05-07T02:27:44;97477.41;;;12.03;75.27
80624;BME280;69981;44.768;9.600;2023-05-07T02:30:11;97476.19;;;11.99;75.70
80624;BME280;69981;44.768;9.600;2023-05-07T02:32:37;97481.22;;;11.96;75.86
80624;BME280;69981;44.768;9.600;2023-05-07T02:35:02;97475.97;;;12.01;75.81
80624;BME280;69981;44.768;9.600;2023-05-07T02:37:28;97474.78;;;11.97;75.70
80624;BME280;69981;44.768;9.600;2023-05-07T02:39:54;97472.28;;;11.95;75.64
80624;BME280;69981;44.768;9.600;2023-05-07T02:42:19;97472.53;;;11.87;75.89
80624;BME280;69981;44.768;9.600;2023-05-07T02:44:45;97475.47;;;11.86;76.54
80624;BME280;69981;44.768;9.600;2023-05-07T02:47:10;97471.19;;;11.78;76.72
80624;BME280;69981;44.768;9.600;2023-05-07T02:49:38;97461.19;;;11.79;76.81
80624;BME280;69981;44.768;9.600;2023-05-07T02:52:05;97466.81;;;11.70;76.67
80624;BME280;69981;44.768;9.600;2023-05-07T02:54:30;97473.31;;;11.63;76.83
80624;BME280;69981;44.768;9.600;2023-05-07T02:56:56;97469.63;;;11.57;76.95
80624;BME280;69981;44.768;9.600;2023-05-07T02:59:22;97472.53;;;11.56;76.96
80624;BME280;69981;44.768;9.600;2023-05-07T03:01:47;97479.81;;;11.55;77.02
80624;BME280;69981;44.768;9.600;2023-05-07T03:04:15;97479.44;;;11.52;77.64
80624;BME280;69981;44.768;9.600;2023-05-07T03:06:41;97476.56;;;11.47;78.35
80624;BME280;69981;44.768;9.600;2023-05-07T03:09:07;97474.78;;;11.34;77.67
80624;BME280;69981;44.768;9.600;2023-05-07T03:11:33;97481.00;;;11.34;78.32
80624;BME280;69981;44.768;9.600;2023-05-07T03:13:59;97478.31;;;11.34;78.25
80624;BME280;69981;44.768;9.600;2023-05-07T03:16:25;97484.94;;;11.39;78.23
80624;BME280;69981;44.768;9.600;2023-05-07T03:18:51;97480.97;;;11.41;77.71
80624;BME280;69981;44.768;9.600;2023-05-07T03:21:16;97480.38;;;11.32;78.41
80624;BME280;69981;44.768;9.600;2023-05-07T03:23:42;97483.50;;;11.29;78.06
80624;BME280;69981;44.768;9.600;2023-05-07T03:26:07;97475.78;;;11.40;77.09
80624;BME280;69981;44.768;9.600;2023-05-07T03:28:33;97486.59;;;11.40;77.29
80624;BME280;69981;44.768;9.600;2023-05-07T03:31:02;97470.78;;;11.36;77.23
80624;BME280;69981;44.768;9.600;2023-05-07T03:33:29;97483.56;;;11.23;78.02
80624;BME280;69981;44.768;9.600;2023-05-07T03:35:55;97491.88;;;11.28;78.19
80624;BME280;69981;44.768;9.600;2023-05-07T03:38:23;97484.81;;;11.20;78.55
80624;BME280;69981;44.768;9.600;2023-05-07T03:40:49;97481.13;;;11.15;78.49
80624;BME280;69981;44.768;9.600;2023-05-07T03:43:15;97488.44;;;11.08;78.16
80624;BME280;69981;44.768;9.600;2023-05-07T03:45:45;97489.66;;;11.05;78.14
80624;BME280;69981;44.768;9.600;2023-05-07T03:48:22;97489.06;;;11.10;78.06
80624;BME280;69981;44.768;9.600;2023-05-07T03:50:49;97485.97;;;11.00;78.24
80624;BME280;69981;44.768;9.600;2023-05-07T03:53:16;97485.97;;;11.00;78.38
80624;BME280;69981;44.768;9.600;2023-05-07T03:55:42;97500.06;;;11.08;78.04
80624;BME280;69981;44.768;9.600;2023-05-07T03:58:07;97493.00;;;11.07;78.47
80624;BME280;69981;44.768;9.600;2023-05-07T04:00:33;97495.31;;;11.04;78.02
80624;BME280;69981;44.768;9.600;2023-05-07T04:03:08;97496.75;;;11.06;78.05
80624;BME280;69981;44.768;9.600;2023-05-07T04:05:34;97496.75;;;11.06;78.15
80624;BME280;69981;44.768;9.600;2023-05-07T04:08:02;97493.44;;;11.04;78.28
80624;BME280;69981;44.768;9.600;2023-05-07T04:10:40;97493.88;;;10.94;77.74
80624;BME280;69981;44.768;9.600;2023-05-07T04:13:09;97503.44;;;10.97;77.44
80624;BME280;69981;44.768;9.600;2023-05-07T04:15:36;97504.03;;;10.99;78.24
80624;BME280;69981;44.768;9.600;2023-05-07T04:18:02;97508.03;;;10.97;77.97
80624;BME280;69981;44.768;9.600;2023-05-07T04:20:27;97508.81;;;11.04;77.79
80624;BME280;69981;44.768;9.600;2023-05-07T04:22:59;97513.41;;;11.03;77.53
80624;BME280;69981;44.768;9.600;2023-05-07T04:25:25;97509.19;;;11.14;77.56
80624;BME280;69981;44.768;9.600;2023-05-07T04:27:54;97512.91;;;11.19;77.00
80624;BME280;69981;44.768;9.600;2023-05-07T04:30:23;97512.53;;;11.09;76.96
80624;BME280;69981;44.768;9.600;2023-05-07T04:32:48;97527.91;;;11.15;77.19
80624;BME280;69981;44.768;9.600;2023-05-07T04:35:14;97521.81;;;11.26;76.77
80624;BME280;69981;44.768;9.600;2023-05-07T04:37:40;97523.47;;;11.27;77.18
80624;BME280;69981;44.768;9.600;2023-05-07T04:40:06;97536.56;;;11.30;77.13
80624;BME280;69981;44.768;9.600;2023-05-07T04:42:32;97529.00;;;11.46;77.41
80624;BME280;69981;44.768;9.600;2023-05-07T04:45:01;97530.75;;;11.65;75.44
80624;BME280;69981;44.768;9.600;2023-05-07T04:47:29;97531.56;;;12.03;75.19
80624;BME280;69981;44.768;9.600;2023-05-07T04:49:55;97531.63;;;11.97;74.50
80624;BME280;69981;44.768;9.600;2023-05-07T04:52:20;97528.72;;;11.92;74.55
80624;BME280;69981;44.768;9.600;2023-05-07T04:54:47;97528.28;;;11.95;74.00
80624;BME280;69981;44.768;9.600;2023-05-07T04:57:13;97537.41;;;12.00;74.18
80624;BME280;69981;44.768;9.600;2023-05-07T04:59:40;97542.72;;;12.13;73.43
80624;BME280;69981;44.768;9.600;2023-05-07T05:02:06;97540.13;;;12.25;73.18
80624;BME280;69981;44.768;9.600;2023-05-07T05:04:31;97542.38;;;12.28;72.68
80624;BME280;69981;44.768;9.600;2023-05-07T05:06:58;97537.34;;;12.32;72.52
80624;BME280;69981;44.768;9.600;2023-05-07T05:09:24;97543.97;;;12.36;72.56
80624;BME280;69981;44.768;9.600;2023-05-07T05:11:49;97547.63;;;12.48;71.99
80624;BME280;69981;44.768;9.600;2023-05-07T05:14:15;97556.78;;;12.47;72.15
80624;BME280;69981;44.768;9.600;2023-05-07T05:16:41;97552.75;;;12.56;71.66
80624;BME280;69981;44.768;9.600;2023-05-07T05:19:06;97547.91;;;12.40;72.11
80624;BME280;69981;44.768;9.600;2023-05-07T05:21:35;97547.19;;;12.51;72.59
80624;BME280;69981;44.768;9.600;2023-05-07T05:24:06;97555.25;;;12.57;71.41
80624;BME280;69981;44.768;9.600;2023-05-07T05:26:32;97555.00;;;12.59;71.48
80624;BME280;69981;44.768;9.600;2023-05-07T05:28:58;97557.56;;;12.54;72.22
80624;BME280;69981;44.768;9.600;2023-05-07T05:31:25;97557.88;;;12.46;72.01
80624;BME280;69981;44.768;9.600;2023-05-07T05:33:51;97557.41;;;12.49;71.19
80624;BME280;69981;44.768;9.600;2023-05-07T05:36:17;97551.16;;;12.48;70.69
80624;BME280;69981;44.768;9.600;2023-05-07T05:38:44;97553.66;;;12.50;71.13
80624;BME280;69981;44.768;9.600;2023-05-07T05:41:11;97550.09;;;12.49;71.54
80624;BME280;69981;44.768;9.600;2023-05-07T05:43:36;97550.19;;;12.61;70.78
80624;BME280;69981;44.768;9.600;2023-05-07T05:46:02;97549.78;;;12.82;70.34
80624;BME280;69981;44.768;9.600;2023-05-07T05:48:29;97557.09;;;13.00;70.04
80624;BME280;69981;44.768;9.600;2023-05-07T05:50:56;97551.41;;;13.26;69.61
80624;BME280;69981;44.768;9.600;2023-05-07T05:53:21;97560.63;;;13.55;68.27
80624;BME280;69981;44.768;9.600;2023-05-07T05:55:47;97552.47;;;13.85;67.29
80624;BME280;69981;44.768;9.600;2023-05-07T05:58:14;97542.72;;;14.07;67.03
80624;BME280;69981;44.768;9.600;2023-05-07T06:00:45;97544.88;;;14.29;66.46
80624;BME280;69981;44.768;9.600;2023-05-07T06:03:11;97539.88;;;14.55;65.60
80624;BME280;69981;44.768;9.600;2023-05-07T06:05:36;97531.94;;;14.77;65.59
80624;BME280;69981;44.768;9.600;2023-05-07T06:08:02;97542.66;;;14.95;64.41
80624;BME280;69981;44.768;9.600;2023-05-07T06:10:31;97526.78;;;15.16;63.63
80624;BME280;69981;44.768;9.600;2023-05-07T06:12:57;97533.75;;;15.23;63.45
80624;BME280;69981;44.768;9.600;2023-05-07T06:15:24;97537.69;;;15.44;62.66
80624;BME280;69981;44.768;9.600;2023-05-07T06:17:50;97543.59;;;15.64;62.60
80624;BME280;69981;44.768;9.600;2023-05-07T06:20:16;97542.47;;;15.77;62.10
80624;BME280;69981;44.768;9.600;2023-05-07T06:22:41;97537.97;;;15.99;61.12
80624;BME280;69981;44.768;9.600;2023-05-07T06:25:09;97543.75;;;16.03;61.56
80624;BME280;69981;44.768;9.600;2023-05-07T06:27:35;97542.47;;;16.22;60.90
80624;BME280;69981;44.768;9.600;2023-05-07T06:30:01;97547.59;;;16.35;60.08
80624;BME280;69981;44.768;9.600;2023-05-07T06:32:26;97541.06;;;16.53;59.50
80624;BME280;69981;44.768;9.600;2023-05-07T06:34:52;97538.91;;;16.55;59.09
80624;BME280;69981;44.768;9.600;2023-05-07T06:37:18;97534.22;;;16.67;59.75
80624;BME280;69981;44.768;9.600;2023-05-07T06:39:53;97522.28;;;16.73;59.05
80624;BME280;69981;44.768;9.600;2023-05-07T06:42:19;97530.47;;;16.90;58.79
80624;BME280;69981;44.768;9.600;2023-05-07T06:44:47;97527.88;;;17.00;58.21
80624;BME280;69981;44.768;9.600;2023-05-07T06:47:15;97535.00;;;17.23;58.96
80624;BME280;69981;44.768;9.600;2023-05-07T06:49:42;97528.09;;;17.37;56.94
80624;BME280;69981;44.768;9.600;2023-05-07T06:52:09;97519.66;;;17.38;57.47
80624;BME280;69981;44.768;9.600;2023-05-07T06:54:34;97523.06;;;17.51;56.93
80624;BME280;69981;44.768;9.600;2023-05-07T06:57:00;97525.59;;;17.57;57.77
80624;BME280;69981;44.768;9.600;2023-05-07T06:59:27;97521.63;;;17.65;58.12
80624;BME280;69981;44.768;9.600;2023-05-07T07:01:53;97525.28;;;17.75;56.80
80624;BME280;69981;44.768;9.600;2023-05-07T07:04:18;97513.31;;;17.82;57.36
80624;BME280;69981;44.768;9.600;2023-05-07T07:06:52;97518.78;;;17.82;56.43
80624;BME280;69981;44.768;9.600;2023-05-07T07:09:18;97511.47;;;17.87;56.79
80624;BME280;69981;44.768;9.600;2023-05-07T07:11:43;97509.66;;;17.98;57.04
80624;BME280;69981;44.768;9.600;2023-05-07T07:14:09;97504.28;;;18.08;56.77
80624;BME280;69981;44.768;9.600;2023-05-07T07:16:41;97518.03;;;18.18;57.54
80624;BME280;69981;44.768;9.600;2023-05-07T07:19:06;97520.81;;;18.23;58.33
80624;BME280;69981;44.768;9.600;2023-05-07T07:21:32;97523.09;;;18.31;56.69
80624;BME280;69981;44.768;9.600;2023-05-07T07:23:57;97516.56;;;18.37;57.16
80624;BME280;69981;44.768;9.600;2023-05-07T07:26:24;97508.91;;;18.39;55.10
80624;BME280;69981;44.768;9.600;2023-05-07T07:28:49;97506.25;;;18.44;55.72
80624;BME280;69981;44.768;9.600;2023-05-07T07:31:18;97503.28;;;18.51;55.07
80624;BME280;69981;44.768;9.600;2023-05-07T07:33:45;97502.75;;;18.54;56.03
80624;BME280;69981;44.768;9.600;2023-05-07T07:36:10;97503.41;;;18.66;57.33
80624;BME280;69981;44.768;9.600;2023-05-07T07:38:37;97503.53;;;18.81;58.67
80624;BME280;69981;44.768;9.600;2023-05-07T07:41:03;97503.31;;;18.93;57.28
80624;BME280;69981;44.768;9.600;2023-05-07T07:43:29;97510.50;;;19.04;56.36
80624;BME280;69981;44.768;9.600;2023-05-07T07:45:55;97495.75;;;19.15;55.70
80624;BME280;69981;44.768;9.600;2023-05-07T07:48:21;97499.06;;;19.22;54.89
80624;BME280;69981;44.768;9.600;2023-05-07T07:50:49;97488.97;;;19.28;54.90
80624;BME280;69981;44.768;9.600;2023-05-07T07:53:16;97490.28;;;19.20;55.39
80624;BME280;69981;44.768;9.600;2023-05-07T07:55:42;97494.81;;;19.47;56.24
80624;BME280;69981;44.768;9.600;2023-05-07T07:58:11;97488.81;;;19.55;55.29
80624;BME280;69981;44.768;9.600;2023-05-07T08:00:36;97494.81;;;19.47;53.16
80624;BME280;69981;44.768;9.600;2023-05-07T08:03:02;97492.91;;;19.47;53.05
80624;BME280;69981;44.768;9.600;2023-05-07T08:05:32;97501.97;;;19.63;56.71
80624;BME280;69981;44.768;9.600;2023-05-07T08:07:58;97499.88;;;19.90;55.34
80624;BME280;69981;44.768;9.600;2023-05-07T08:10:28;97493.28;;;19.81;54.45
80624;BME280;69981;44.768;9.600;2023-05-07T08:13:01;97497.06;;;19.65;56.68
80624;BME280;69981;44.768;9.600;2023-05-07T08:15:29;97502.50;;;19.50;52.05
80624;BME280;69981;44.768;9.600;2023-05-07T08:17:55;97504.44;;;19.54;56.12
80624;BME280;69981;44.768;9.600;2023-05-07T08:20:23;97501.44;;;19.56;54.31
80624;BME280;69981;44.768;9.600;2023-05-07T08:22:49;97502.78;;;19.48;53.17
80624;BME280;69981;44.768;9.600;2023-05-07T08:25:15;97500.50;;;19.40;51.39
80624;BME280;69981;44.768;9.600;2023-05-07T08:27:41;97497.63;;;19.62;52.59
80624;BME280;69981;44.768;9.600;2023-05-07T08:30:07;97500.69;;;19.91;55.11
80624;BME280;69981;44.768;9.600;2023-05-07T08:32:33;97503.63;;;19.64;50.28
80624;BME280;69981;44.768;9.600;2023-05-07T08:34:59;97503.69;;;19.74;49.68
80624;BME280;69981;44.768;9.600;2023-05-07T08:37:25;97500.44;;;19.92;52.56
80624;BME280;69981;44.768;9.600;2023-05-07T08:39:51;97502.09;;;20.03;51.34
80624;BME280;69981;44.768;9.600;2023-05-07T08:42:20;97507.03;;;20.11;51.38
80624;BME280;69981;44.768;9.600;2023-05-07T08:44:50;97497.97;;;20.21;50.84
80624;BME280;69981;44.768;9.600;2023-05-07T08:47:19;97494.16;;;20.22;50.39
80624;BME280;69981;44.768;9.600;2023-05-07T08:49:46;97482.06;;;20.13;48.99
80624;BME280;69981;44.768;9.600;2023-05-07T08:52:12;97482.88;;;20.13;48.08
80624;BME280;69981;44.768;9.600;2023-05-07T08:54:38;97486.75;;;20.28;49.38
80624;BME280;69981;44.768;9.600;2023-05-07T08:57:06;97485.91;;;20.22;51.27
80624;BME280;69981;44.768;9.600;2023-05-07T08:59:33;97474.41;;;20.05;49.54
80624;BME280;69981;44.768;9.600;2023-05-07T09:01:59;97479.34;;;20.28;50.21
80624;BME280;69981;44.768;9.600;2023-05-07T09:04:25;97479.34;;;20.28;50.61
80624;BME280;69981;44.768;9.600;2023-05-07T09:06:50;97475.22;;;20.51;51.62
80624;BME280;69981;44.768;9.600;2023-05-07T09:09:18;97484.84;;;20.58;51.15
80624;BME280;69981;44.768;9.600;2023-05-07T09:11:44;97480.16;;;20.69;49.18
80624;BME280;69981;44.768;9.600;2023-05-07T09:14:11;97477.91;;;20.96;51.94
80624;BME280;69981;44.768;9.600;2023-05-07T09:16:40;97474.56;;;21.20;54.98
80624;BME280;69981;44.768;9.600;2023-05-07T09:19:06;97459.97;;;21.24;49.00
80624;BME280;69981;44.768;9.600;2023-05-07T09:21:33;97463.53;;;21.25;45.67
80624;BME280;69981;44.768;9.600;2023-05-07T09:24:01;97461.03;;;21.33;50.08
80624;BME280;69981;44.768;9.600;2023-05-07T09:26:33;97452.84;;;21.13;47.10
80624;BME280;69981;44.768;9.600;2023-05-07T09:29:00;97451.97;;;21.33;50.13
80624;BME280;69981;44.768;9.600;2023-05-07T09:31:26;97451.09;;;21.48;46.35
80624;BME280;69981;44.768;9.600;2023-05-07T09:33:53;97449.41;;;21.52;46.94
80624;BME280;69981;44.768;9.600;2023-05-07T09:36:22;97443.69;;;21.43;44.98
80624;BME280;69981;44.768;9.600;2023-05-07T09:38:48;97446.91;;;21.55;48.06
80624;BME280;69981;44.768;9.600;2023-05-07T09:41:15;97448.16;;;21.24;44.87
80624;BME280;69981;44.768;9.600;2023-05-07T09:43:56;97454.38;;;21.45;45.38
80624;BME280;69981;44.768;9.600;2023-05-07T09:46:30;97452.41;;;21.55;48.62
80624;BME280;69981;44.768;9.600;2023-05-07T09:49:06;97450.91;;;21.78;50.47
80624;BME280;69981;44.768;9.600;2023-05-07T09:51:48;97446.69;;;21.91;45.80
80624;BME280;69981;44.768;9.600;2023-05-07T09:54:15;97443.31;;;22.04;45.34
80624;BME280;69981;44.768;9.600;2023-05-07T09:56:48;97446.38;;;22.02;44.54
80624;BME280;69981;44.768;9.600;2023-05-07T09:59:16;97443.34;;;21.99;49.59
80624;BME280;69981;44.768;9.600;2023-05-07T10:01:44;97449.56;;;22.14;48.51
80624;BME280;69981;44.768;9.600;2023-05-07T10:04:10;97442.94;;;22.21;46.52
80624;BME280;69981;44.768;9.600;2023-05-07T10:06:38;97443.13;;;21.95;48.65
80624;BME280;69981;44.768;9.600;2023-05-07T10:09:05;97450.69;;;21.69;49.56
80624;BME280;69981;44.768;9.600;2023-05-07T10:11:35;97457.88;;;21.60;51.70
80624;BME280;69981;44.768;9.600;2023-05-07T10:14:02;97443.63;;;21.48;49.85
80624;BME280;69981;44.768;9.600;2023-05-07T10:16:31;97456.75;;;20.97;49.33
80624;BME280;69981;44.768;9.600;2023-05-07T10:18:58;97438.25;;;21.33;50.32
80624;BME280;69981;44.768;9.600;2023-05-07T10:21:27;97451.84;;;21.58;50.24
80624;BME280;69981;44.768;9.600;2023-05-07T10:24:05;97444.94;;;21.61;49.60
80624;BME280;69981;44.768;9.600;2023-05-07T10:26:43;97448.41;;;21.82;48.42
80624;BME280;69981;44.768;9.600;2023-05-07T10:29:21;97445.00;;;21.95;49.17
80624;BME280;69981;44.768;9.600;2023-05-07T10:34:43;97435.94;;;21.99;49.81
80624;BME280;69981;44.768;9.600;2023-05-07T10:37:10;97437.13;;;21.83;51.87
80624;BME280;69981;44.768;9.600;2023-05-07T10:39:37;97459.66;;;21.31;49.00
80624;BME280;69981;44.768;9.600;2023-05-07T10:42:14;97452.00;;;21.28;51.38
80624;BME280;69981;44.768;9.600;2023-05-07T10:44:45;97444.59;;;21.28;50.30
80624;BME280;69981;44.768;9.600;2023-05-07T10:47:20;97439.66;;;21.20;49.51
80624;BME280;69981;44.768;9.600;2023-05-07T10:52:21;97442.97;;;21.12;51.81
80624;BME280;69981;44.768;9.600;2023-05-07T11:00:50;97462.94;;;21.38;54.15
80624;BME280;69981;44.768;9.600;2023-05-07T11:03:26;97450.19;;;21.57;52.79
80624;BME280;69981;44.768;9.600;2023-05-07T11:09:00;97455.56;;;21.23;51.32
80624;BME280;69981;44.768;9.600;2023-05-07T11:11:50;97454.63;;;21.48;54.70
80624;BME280;69981;44.768;9.600;2023-05-07T11:17:10;97445.97;;;21.26;52.47
80624;BME280;69981;44.768;9.600;2023-05-07T11:19:54;97440.19;;;21.27;51.31
80624;BME280;69981;44.768;9.600;2023-05-07T11:22:40;97442.34;;;21.35;51.67
80624;BME280;69981;44.768;9.600;2023-05-07T11:25:22;97445.38;;;21.34;53.57
80624;BME280;69981;44.768;9.600;2023-05-07T11:28:10;97445.72;;;21.71;54.57
80624;BME280;69981;44.768;9.600;2023-05-07T11:30:42;97432.97;;;21.86;51.04
80624;BME280;69981;44.768;9.600;2023-05-07T11:33:10;97428.97;;;21.68;50.51
80624;BME280;69981;44.768;9.600;2023-05-07T11:35:36;97434.25;;;21.59;50.52
80624;BME280;69981;44.768;9.600;2023-05-07T11:38:03;97434.31;;;21.49;52.21
80624;BME280;69981;44.768;9.600;2023-05-07T11:40:31;97426.72;;;21.26;51.59
80624;BME280;69981;44.768;9.600;2023-05-07T11:42:57;97431.25;;;21.56;52.37
80624;BME280;69981;44.768;9.600;2023-05-07T11:45:23;97427.97;;;21.54;51.40
80624;BME280;69981;44.768;9.600;2023-05-07T11:47:52;97421.25;;;21.70;50.48
80624;BME280;69981;44.768;9.600;2023-05-07T11:50:17;97418.47;;;21.75;51.64
80624;BME280;69981;44.768;9.600;2023-05-07T11:52:50;97424.28;;;21.68;51.42
80624;BME280;69981;44.768;9.600;2023-05-07T11:55:18;97422.00;;;21.80;52.96
80624;BME280;69981;44.768;9.600;2023-05-07T11:57:44;97424.69;;;21.96;52.92
80624;BME280;69981;44.768;9.600;2023-05-07T12:00:10;97425.59;;;21.81;49.91
80624;BME280;69981;44.768;9.600;2023-05-07T12:02:39;97430.44;;;21.99;50.23
80624;BME280;69981;44.768;9.600;2023-05-07T12:05:04;97426.56;;;22.00;51.29
80624;BME280;69981;44.768;9.600;2023-05-07T12:07:30;97432.13;;;21.95;51.15
80624;BME280;69981;44.768;9.600;2023-05-07T12:09:57;97429.59;;;21.99;50.29
80624;BME280;69981;44.768;9.600;2023-05-07T12:12:22;97430.19;;;21.96;50.11
80624;BME280;69981;44.768;9.600;2023-05-07T12:14:48;97423.09;;;21.85;50.48
80624;BME280;69981;44.768;9.600;2023-05-07T12:17:14;97429.38;;;21.90;51.89
80624;BME280;69981;44.768;9.600;2023-05-07T12:22:10;97436.22;;;21.93;51.40
80624;BME280;69981;44.768;9.600;2023-05-07T12:24:49;97432.31;;;22.04;49.59
80624;BME280;69981;44.768;9.600;2023-05-07T12:27:16;97437.75;;;22.14;51.89
80624;BME280;69981;44.768;9.600;2023-05-07T12:29:46;97433.13;;;22.04;49.16
80624;BME280;69981;44.768;9.600;2023-05-07T12:32:15;97437.38;;;21.87;50.66
80624;BME280;69981;44.768;9.600;2023-05-07T12:34:42;97438.72;;;21.89;50.21
80624;BME280;69981;44.768;9.600;2023-05-07T12:37:07;97431.66;;;21.78;51.93
80624;BME280;69981;44.768;9.600;2023-05-07T12:39:33;97427.94;;;21.59;51.00
80624;BME280;69981;44.768;9.600;2023-05-07T12:41:59;97422.97;;;21.61;50.03
80624;BME280;69981;44.768;9.600;2023-05-07T12:44:28;97409.13;;;21.76;50.92
80624;BME280;69981;44.768;9.600;2023-05-07T12:46:54;97418.78;;;21.68;50.09
80624;BME280;69981;44.768;9.600;2023-05-07T12:49:20;97423.09;;;21.85;50.55
80624;BME280;69981;44.768;9.600;2023-05-07T12:51:48;97421.31;;;22.04;49.70
80624;BME280;69981;44.768;9.600;2023-05-07T12:54:35;97413.88;;;22.09;49.09
80624;BME280;69981;44.768;9.600;2023-05-07T12:57:06;97411.88;;;22.15;48.56
80624;BME280;69981;44.768;9.600;2023-05-07T12:59:40;97412.66;;;22.21;49.71
80624;BME280;69981;44.768;9.600;2023-05-07T13:02:06;97414.19;;;22.03;50.06
80624;BME280;69981;44.768;9.600;2023-05-07T13:04:32;97403.03;;;21.84;50.73
80624;BME280;69981;44.768;9.600;2023-05-07T13:06:59;97409.84;;;21.53;50.01
80624;BME280;69981;44.768;9.600;2023-05-07T13:09:24;97407.88;;;21.58;50.88
80624;BME280;69981;44.768;9.600;2023-05-07T13:11:50;97408.91;;;21.67;50.49
80624;BME280;69981;44.768;9.600;2023-05-07T13:14:15;97414.19;;;21.59;50.64
80624;BME280;69981;44.768;9.600;2023-05-07T13:16:41;97396.09;;;21.53;49.53
80624;BME280;69981;44.768;9.600;2023-05-07T13:19:07;97393.03;;;21.54;50.11
80624;BME280;69981;44.768;9.600;2023-05-07T13:21:32;97391.44;;;21.53;51.29